sensor_id;sensor_type;location;lat;lon;timestamp;P1;durP1;ratioP1;P2;durP2;ratioP2
4652;SDS011;9900;48.738;9.306;2023-11-22T00:01:11;16.03;;;7.53;;
4652;SDS011;9900;48.738;9.306;2023-11-22T00:03:40;10.57;;;7.13;;
4652;SDS011;9900;48.738;9.306;2023-11-22T00:06:09;13.23;;;8.17;;
4652;SDS011;9900;48.738;9.306;2023-11-22T00:08:38;13.57;;;8.00;;
4652;SDS011;9900;48.738;9.306;2023-11-22T00:11:06;11.07;;;7.33;;
4652;SDS011;9900;48.738;9.306;2023-11-22T00:13:35;14.23;;;7.03;;
4652;SDS011;9900;48.738;9.306;2023-11-22T00:16:04;11.33;;;6.57;;
4652;SDS011;9900;48.738;9.306;2023-11-22T00:18:37;9.67;;;5.93;;
4652;SDS011;9900;48.738;9.306;2023-11-22T00:21:06;9.03;;;5.60;;
4652;SDS011;9900;48.738;9.306;2023-11-22T00:23:35;8.67;;;5.70;;
4652;SDS011;9900;48.738;9.306;2023-11-22T00:26:04;4.70;;;3.80;;
4652;SDS011;9900;48.738;9.306;2023-11-22T00:28:34;3.10;;;2.80;;
4652;SDS011;9900;48.738;9.306;2023-11-22T00:31:03;2.40;;;1.90;;
4652;SDS011;9900;48.738;9.306;2023-11-22T00:33:32;1.70;;;1.60;;
4652;SDS011;9900;48.738;9.306;2023-11-22T00:36:03;1.60;;;1.50;;
4652;SDS011;9900;48.738;9.306;2023-11-22T00:38:35;1.47;;;1.37;;
4652;SDS011;9900;48.738;9.306;2023-11-22T00:41:04;1.30;;;1.20;;
4652;SDS011;9900;48.738;9.306;2023-11-22T00:43:35;1.50;;;1.40;;
4652;SDS011;9900;48.738;9.306;2023-11-22T00:46:04;1.83;;;1.73;;
4652;SDS011;9900;48.738;9.306;2023-11-22T00:48:33;1.80;;;1.70;;
4652;SDS011;9900;48.738;9.306;2023-11-22T00:51:03;2.40;;;2.20;;
4652;SDS011;9900;48.738;9.306;2023-11-22T00:53:36;2.97;;;2.30;;
4652;SDS011;9900;48.738;9.306;2023-11-22T00:56:05;2.27;;;2.10;;
4652;SDS011;9900;48.738;9.306;2023-11-22T00:58:34;2.70;;;2.50;;
4652;SDS011;9900;48.738;9.306;2023-11-22T01:01:03;2.20;;;2.10;;
4652;SDS011;9900;48.738;9.306;2023-11-22T01:03:32;2.40;;;2.20;;
4652;SDS011;9900;48.738;9.306;2023-11-22T01:06:01;2.80;;;2.60;;
4652;SDS011;9900;48.738;9.306;2023-11-22T01:08:32;2.50;;;2.30;;
4652;SDS011;9900;48.738;9.306;2023-11-22T01:11:00;3.50;;;2.70;;
4652;SDS011;9900;48.738;9.306;2023-11-22T01:13:31;3.00;;;2.70;;
4652;SDS011;9900;48.738;9.306;2023-11-22T01:16:00;2.77;;;2.57;;
4652;SDS011;9900;48.738;9.306;2023-11-22T01:18:28;2.93;;;2.70;;
4652;SDS011;9900;48.738;9.306;2023-11-22T01:20:57;8.33;;;2.97;;
4652;SDS011;9900;48.738;9.306;2023-11-22T01:23:26;4.40;;;2.93;;
4652;SDS011;9900;48.738;9.306;2023-11-22T01:25:56;2.67;;;2.47;;
4652;SDS011;9900;48.738;9.306;2023-11-22T01:28:26;2.90;;;2.70;;
4652;SDS011;9900;48.738;9.306;2023-11-22T01:30:55;2.70;;;2.50;;
4652;SDS011;9900;48.738;9.306;2023-11-22T01:33:23;3.37;;;3.07;;
4652;SDS011;9900;48.738;9.306;2023-11-22T01:35:54;2.53;;;2.33;;
4652;SDS011;9900;48.738;9.306;2023-11-22T01:38:23;2.93;;;2.73;;
4652;SDS011;9900;48.738;9.306;2023-11-22T01:40:52;3.07;;;2.83;;
4652;SDS011;9900;48.738;9.306;2023-11-22T01:43:22;3.50;;;3.20;;
4652;SDS011;9900;48.738;9.306;2023-11-22T01:45:52;3.23;;;2.93;;
4652;SDS011;9900;48.738;9.306;2023-11-22T01:48:22;3.17;;;2.87;;
4652;SDS011;9900;48.738;9.306;2023-11-22T01:50:51;6.50;;;2.87;;
4652;SDS011;9900;48.738;9.306;2023-11-22T01:53:20;3.60;;;3.00;;
4652;SDS011;9900;48.738;9.306;2023-11-22T01:55:49;3.23;;;2.90;;
4652;SDS011;9900;48.738;9.306;2023-11-22T01:58:18;3.40;;;3.07;;
4652;SDS011;9900;48.738;9.306;2023-11-22T02:00:49;5.03;;;3.10;;
4652;SDS011;9900;48.738;9.306;2023-11-22T02:03:19;3.70;;;3.17;;
4652;SDS011;9900;48.738;9.306;2023-11-22T02:05:48;3.10;;;2.90;;
4652;SDS011;9900;48.738;9.306;2023-11-22T02:08:18;3.80;;;3.40;;
4652;SDS011;9900;48.738;9.306;2023-11-22T02:10:56;3.30;;;2.93;;
4652;SDS011;9900;48.738;9.306;2023-11-22T02:13:28;3.10;;;2.90;;
4652;SDS011;9900;48.738;9.306;2023-11-22T02:15:58;3.53;;;2.97;;
4652;SDS011;9900;48.738;9.306;2023-11-22T02:18:29;4.00;;;3.53;;
4652;SDS011;9900;48.738;9.306;2023-11-22T02:20:58;3.20;;;2.93;;
4652;SDS011;9900;48.738;9.306;2023-11-22T02:23:28;2.67;;;2.47;;
4652;SDS011;9900;48.738;9.306;2023-11-22T02:25:56;4.00;;;3.10;;
4652;SDS011;9900;48.738;9.306;2023-11-22T02:28:26;3.53;;;3.03;;
4652;SDS011;9900;48.738;9.306;2023-11-22T02:30:54;3.33;;;3.00;;
4652;SDS011;9900;48.738;9.306;2023-11-22T02:33:23;3.17;;;2.87;;
4652;SDS011;9900;48.738;9.306;2023-11-22T02:35:52;3.33;;;3.03;;
4652;SDS011;9900;48.738;9.306;2023-11-22T02:38:21;4.00;;;2.87;;
4652;SDS011;9900;48.738;9.306;2023-11-22T02:40:54;3.23;;;2.93;;
4652;SDS011;9900;48.738;9.306;2023-11-22T02:43:23;3.80;;;2.70;;
4652;SDS011;9900;48.738;9.306;2023-11-22T02:45:52;3.60;;;2.93;;
4652;SDS011;9900;48.738;9.306;2023-11-22T02:48:21;3.30;;;3.00;;
4652;SDS011;9900;48.738;9.306;2023-11-22T02:50:50;3.40;;;3.10;;
4652;SDS011;9900;48.738;9.306;2023-11-22T02:53:21;3.97;;;3.27;;
4652;SDS011;9900;48.738;9.306;2023-11-22T02:55:50;3.60;;;2.70;;
4652;SDS011;9900;48.738;9.306;2023-11-22T02:58:20;3.00;;;2.70;;
4652;SDS011;9900;48.738;9.306;2023-11-22T03:00:49;4.13;;;2.80;;
4652;SDS011;9900;48.738;9.306;2023-11-22T03:03:22;5.90;;;2.87;;
4652;SDS011;9900;48.738;9.306;2023-11-22T03:05:51;3.47;;;3.17;;
4652;SDS011;9900;48.738;9.306;2023-11-22T03:08:20;3.10;;;2.80;;
4652;SDS011;9900;48.738;9.306;2023-11-22T03:10:49;4.00;;;2.70;;
4652;SDS011;9900;48.738;9.306;2023-11-22T03:13:20;3.40;;;3.10;;
4652;SDS011;9900;48.738;9.306;2023-11-22T03:15:48;4.10;;;3.40;;
4652;SDS011;9900;48.738;9.306;2023-11-22T03:18:17;3.37;;;2.80;;
4652;SDS011;9900;48.738;9.306;2023-11-22T03:20:46;3.33;;;3.00;;
4652;SDS011;9900;48.738;9.306;2023-11-22T03:23:14;2.90;;;2.67;;
4652;SDS011;9900;48.738;9.306;2023-11-22T03:25:44;3.33;;;3.03;;
4652;SDS011;9900;48.738;9.306;2023-11-22T03:28:13;3.10;;;2.90;;
4652;SDS011;9900;48.738;9.306;2023-11-22T03:30:43;5.10;;;2.70;;
4652;SDS011;9900;48.738;9.306;2023-11-22T03:33:12;2.90;;;2.70;;
4652;SDS011;9900;48.738;9.306;2023-11-22T03:35:42;4.73;;;3.27;;
4652;SDS011;9900;48.738;9.306;2023-11-22T03:38:11;3.30;;;3.00;;
4652;SDS011;9900;48.738;9.306;2023-11-22T03:40:40;3.40;;;3.10;;
4652;SDS011;9900;48.738;9.306;2023-11-22T03:43:08;4.60;;;2.73;;
4652;SDS011;9900;48.738;9.306;2023-11-22T03:45:38;3.40;;;2.70;;
4652;SDS011;9900;48.738;9.306;2023-11-22T03:48:08;3.20;;;2.73;;
4652;SDS011;9900;48.738;9.306;2023-11-22T03:50:37;4.10;;;3.27;;
4652;SDS011;9900;48.738;9.306;2023-11-22T03:53:06;4.73;;;3.40;;
4652;SDS011;9900;48.738;9.306;2023-11-22T03:55:35;4.20;;;3.30;;
4652;SDS011;9900;48.738;9.306;2023-11-22T03:58:04;3.13;;;2.60;;
4652;SDS011;9900;48.738;9.306;2023-11-22T04:00:33;3.90;;;2.77;;
4652;SDS011;9900;48.738;9.306;2023-11-22T04:03:01;3.40;;;2.83;;
4652;SDS011;9900;48.738;9.306;2023-11-22T04:05:32;3.10;;;2.63;;
4652;SDS011;9900;48.738;9.306;2023-11-22T04:08:01;3.03;;;2.67;;
4652;SDS011;9900;48.738;9.306;2023-11-22T04:10:30;3.00;;;2.70;;
4652;SDS011;9900;48.738;9.306;2023-11-22T04:12:58;3.30;;;2.90;;
4652;SDS011;9900;48.738;9.306;2023-11-22T04:15:28;3.73;;;3.03;;
4652;SDS011;9900;48.738;9.306;2023-11-22T04:17:57;3.40;;;2.80;;
4652;SDS011;9900;48.738;9.306;2023-11-22T04:20:26;3.40;;;3.10;;
4652;SDS011;9900;48.738;9.306;2023-11-22T04:22:56;5.10;;;2.80;;
4652;SDS011;9900;48.738;9.306;2023-11-22T04:25:25;4.07;;;3.20;;
4652;SDS011;9900;48.738;9.306;2023-11-22T04:27:54;3.57;;;3.03;;
4652;SDS011;9900;48.738;9.306;2023-11-22T04:30:23;4.60;;;3.37;;
4652;SDS011;9900;48.738;9.306;2023-11-22T04:32:51;4.10;;;3.40;;
4652;SDS011;9900;48.738;9.306;2023-11-22T04:35:20;4.57;;;2.80;;
4652;SDS011;9900;48.738;9.306;2023-11-22T04:37:50;3.37;;;3.07;;
4652;SDS011;9900;48.738;9.306;2023-11-22T04:40:20;5.10;;;3.17;;
4652;SDS011;9900;48.738;9.306;2023-11-22T04:42:49;4.63;;;3.17;;
4652;SDS011;9900;48.738;9.306;2023-11-22T04:45:17;3.63;;;3.00;;
4652;SDS011;9900;48.738;9.306;2023-11-22T04:47:46;5.70;;;3.20;;
4652;SDS011;9900;48.738;9.306;2023-11-22T04:50:15;2.90;;;2.70;;
4652;SDS011;9900;48.738;9.306;2023-11-22T04:52:45;3.50;;;3.10;;
4652;SDS011;9900;48.738;9.306;2023-11-22T04:55:14;4.30;;;3.07;;
4652;SDS011;9900;48.738;9.306;2023-11-22T04:57:44;4.10;;;2.97;;
4652;SDS011;9900;48.738;9.306;2023-11-22T05:00:13;4.17;;;2.90;;
4652;SDS011;9900;48.738;9.306;2023-11-22T05:02:42;3.00;;;2.70;;
4652;SDS011;9900;48.738;9.306;2023-11-22T05:05:11;3.87;;;3.37;;
4652;SDS011;9900;48.738;9.306;2023-11-22T05:07:40;2.70;;;2.50;;
4652;SDS011;9900;48.738;9.306;2023-11-22T05:10:09;3.57;;;2.90;;
4652;SDS011;9900;48.738;9.306;2023-11-22T05:12:38;3.20;;;2.90;;
4652;SDS011;9900;48.738;9.306;2023-11-22T05:15:08;5.90;;;3.40;;
4652;SDS011;9900;48.738;9.306;2023-11-22T05:17:38;6.53;;;2.97;;
4652;SDS011;9900;48.738;9.306;2023-11-22T05:20:08;3.30;;;3.00;;
4652;SDS011;9900;48.738;9.306;2023-11-22T05:22:37;2.77;;;2.57;;
4652;SDS011;9900;48.738;9.306;2023-11-22T05:25:06;3.47;;;3.10;;
4652;SDS011;9900;48.738;9.306;2023-11-22T05:27:35;3.10;;;2.80;;
4652;SDS011;9900;48.738;9.306;2023-11-22T05:30:05;3.50;;;2.90;;
4652;SDS011;9900;48.738;9.306;2023-11-22T05:32:36;3.60;;;2.90;;
4652;SDS011;9900;48.738;9.306;2023-11-22T05:35:05;3.70;;;3.20;;
4652;SDS011;9900;48.738;9.306;2023-11-22T05:37:37;3.23;;;2.93;;
4652;SDS011;9900;48.738;9.306;2023-11-22T05:40:06;4.90;;;2.90;;
4652;SDS011;9900;48.738;9.306;2023-11-22T05:42:37;3.53;;;2.73;;
4652;SDS011;9900;48.738;9.306;2023-11-22T05:45:08;3.47;;;3.03;;
4652;SDS011;9900;48.738;9.306;2023-11-22T05:47:38;2.83;;;2.60;;
4652;SDS011;9900;48.738;9.306;2023-11-22T05:50:08;3.07;;;2.80;;
4652;SDS011;9900;48.738;9.306;2023-11-22T05:52:37;2.97;;;2.70;;
4652;SDS011;9900;48.738;9.306;2023-11-22T05:55:06;2.90;;;2.60;;
4652;SDS011;9900;48.738;9.306;2023-11-22T05:57:36;3.03;;;2.80;;
4652;SDS011;9900;48.738;9.306;2023-11-22T06:00:05;3.60;;;2.50;;
4652;SDS011;9900;48.738;9.306;2023-11-22T06:02:35;2.57;;;2.37;;
4652;SDS011;9900;48.738;9.306;2023-11-22T06:05:06;4.30;;;3.03;;
4652;SDS011;9900;48.738;9.306;2023-11-22T06:07:37;4.17;;;3.10;;
4652;SDS011;9900;48.738;9.306;2023-11-22T06:10:06;3.90;;;2.80;;
4652;SDS011;9900;48.738;9.306;2023-11-22T06:12:35;3.27;;;2.90;;
4652;SDS011;9900;48.738;9.306;2023-11-22T06:15:05;3.40;;;3.10;;
4652;SDS011;9900;48.738;9.306;2023-11-22T06:17:35;11.63;;;2.90;;
4652;SDS011;9900;48.738;9.306;2023-11-22T06:20:06;2.70;;;2.50;;
4652;SDS011;9900;48.738;9.306;2023-11-22T06:22:37;3.57;;;2.90;;
4652;SDS011;9900;48.738;9.306;2023-11-22T06:25:08;3.53;;;3.03;;
4652;SDS011;9900;48.738;9.306;2023-11-22T06:27:37;4.23;;;2.93;;
4652;SDS011;9900;48.738;9.306;2023-11-22T06:30:07;2.97;;;2.50;;
4652;SDS011;9900;48.738;9.306;2023-11-22T06:32:37;3.43;;;3.13;;
4652;SDS011;9900;48.738;9.306;2023-11-22T06:35:08;3.27;;;2.97;;
4652;SDS011;9900;48.738;9.306;2023-11-22T06:37:38;3.83;;;3.10;;
4652;SDS011;9900;48.738;9.306;2023-11-22T06:40:07;3.13;;;2.83;;
4652;SDS011;9900;48.738;9.306;2023-11-22T06:42:37;6.00;;;3.20;;
4652;SDS011;9900;48.738;9.306;2023-11-22T06:45:06;3.27;;;2.83;;
4652;SDS011;9900;48.738;9.306;2023-11-22T06:47:37;3.30;;;2.90;;
4652;SDS011;9900;48.738;9.306;2023-11-22T06:50:08;4.27;;;3.37;;
4652;SDS011;9900;48.738;9.306;2023-11-22T06:52:38;4.30;;;3.57;;
4652;SDS011;9900;48.738;9.306;2023-11-22T06:55:08;4.70;;;3.20;;
4652;SDS011;9900;48.738;9.306;2023-11-22T06:57:38;4.60;;;3.27;;
4652;SDS011;9900;48.738;9.306;2023-11-22T07:00:07;3.60;;;3.30;;
4652;SDS011;9900;48.738;9.306;2023-11-22T07:02:37;3.80;;;3.27;;
4652;SDS011;9900;48.738;9.306;2023-11-22T07:05:08;3.63;;;3.33;;
4652;SDS011;9900;48.738;9.306;2023-11-22T07:07:37;3.40;;;3.10;;
4652;SDS011;9900;48.738;9.306;2023-11-22T07:10:07;7.30;;;3.80;;
4652;SDS011;9900;48.738;9.306;2023-11-22T07:12:38;8.00;;;3.00;;
4652;SDS011;9900;48.738;9.306;2023-11-22T07:15:07;5.17;;;3.50;;
4652;SDS011;9900;48.738;9.306;2023-11-22T07:17:37;3.30;;;3.00;;
4652;SDS011;9900;48.738;9.306;2023-11-22T07:20:08;3.90;;;2.80;;
4652;SDS011;9900;48.738;9.306;2023-11-22T07:22:43;3.50;;;3.00;;
4652;SDS011;9900;48.738;9.306;2023-11-22T07:25:12;4.13;;;3.40;;
4652;SDS011;9900;48.738;9.306;2023-11-22T07:27:45;5.57;;;2.90;;
4652;SDS011;9900;48.738;9.306;2023-11-22T07:30:22;2.77;;;2.57;;
4652;SDS011;9900;48.738;9.306;2023-11-22T07:33:22;5.23;;;2.67;;
4652;SDS011;9900;48.738;9.306;2023-11-22T07:35:55;3.87;;;3.10;;
4652;SDS011;9900;48.738;9.306;2023-11-22T07:38:24;3.53;;;2.83;;
4652;SDS011;9900;48.738;9.306;2023-11-22T07:40:52;3.20;;;2.50;;
4652;SDS011;9900;48.738;9.306;2023-11-22T07:43:21;3.77;;;2.47;;
4652;SDS011;9900;48.738;9.306;2023-11-22T07:45:50;2.40;;;2.20;;
4652;SDS011;9900;48.738;9.306;2023-11-22T07:48:19;2.90;;;2.33;;
4652;SDS011;9900;48.738;9.306;2023-11-22T07:50:48;3.23;;;2.50;;
4652;SDS011;9900;48.738;9.306;2023-11-22T07:53:18;2.77;;;2.57;;
4652;SDS011;9900;48.738;9.306;2023-11-22T07:55:47;3.27;;;2.37;;
4652;SDS011;9900;48.738;9.306;2023-11-22T07:58:16;4.20;;;2.70;;
4652;SDS011;9900;48.738;9.306;2023-11-22T08:00:44;2.87;;;2.47;;
4652;SDS011;9900;48.738;9.306;2023-11-22T08:03:13;2.90;;;2.70;;
4652;SDS011;9900;48.738;9.306;2023-11-22T08:05:43;3.70;;;2.37;;
4652;SDS011;9900;48.738;9.306;2023-11-22T08:08:15;3.97;;;2.37;;
4652;SDS011;9900;48.738;9.306;2023-11-22T08:10:45;4.70;;;2.33;;
4652;SDS011;9900;48.738;9.306;2023-11-22T08:13:15;2.60;;;2.33;;
4652;SDS011;9900;48.738;9.306;2023-11-22T08:15:46;2.83;;;2.57;;
4652;SDS011;9900;48.738;9.306;2023-11-22T08:18:15;4.03;;;2.23;;
4652;SDS011;9900;48.738;9.306;2023-11-22T08:20:45;5.90;;;2.63;;
4652;SDS011;9900;48.738;9.306;2023-11-22T08:23:14;7.10;;;2.50;;
4652;SDS011;9900;48.738;9.306;2023-11-22T08:25:43;10.43;;;2.67;;
4652;SDS011;9900;48.738;9.306;2023-11-22T08:28:14;2.87;;;2.60;;
4652;SDS011;9900;48.738;9.306;2023-11-22T08:30:43;3.13;;;2.73;;
4652;SDS011;9900;48.738;9.306;2023-11-22T08:33:12;4.77;;;2.87;;
4652;SDS011;9900;48.738;9.306;2023-11-22T08:35:41;4.60;;;3.17;;
4652;SDS011;9900;48.738;9.306;2023-11-22T08:38:10;2.67;;;2.40;;
4652;SDS011;9900;48.738;9.306;2023-11-22T08:40:39;3.30;;;3.00;;
4652;SDS011;9900;48.738;9.306;2023-11-22T08:43:08;8.03;;;3.70;;
4652;SDS011;9900;48.738;9.306;2023-11-22T08:45:38;4.77;;;2.63;;
4652;SDS011;9900;48.738;9.306;2023-11-22T08:48:07;4.10;;;3.10;;
4652;SDS011;9900;48.738;9.306;2023-11-22T08:50:36;7.33;;;3.30;;
4652;SDS011;9900;48.738;9.306;2023-11-22T08:53:04;3.40;;;3.10;;
4652;SDS011;9900;48.738;9.306;2023-11-22T08:55:34;3.83;;;3.43;;
4652;SDS011;9900;48.738;9.306;2023-11-22T08:58:02;3.93;;;3.43;;
4652;SDS011;9900;48.738;9.306;2023-11-22T09:00:32;4.20;;;3.80;;
4652;SDS011;9900;48.738;9.306;2023-11-22T09:03:04;9.10;;;3.27;;
4652;SDS011;9900;48.738;9.306;2023-11-22T09:05:33;4.17;;;3.20;;
4652;SDS011;9900;48.738;9.306;2023-11-22T09:08:03;4.07;;;3.30;;
4652;SDS011;9900;48.738;9.306;2023-11-22T09:10:45;3.40;;;2.80;;
4652;SDS011;9900;48.738;9.306;2023-11-22T09:13:14;6.37;;;2.90;;
4652;SDS011;9900;48.738;9.306;2023-11-22T09:15:43;2.90;;;2.70;;
4652;SDS011;9900;48.738;9.306;2023-11-22T09:18:14;3.97;;;3.60;;
4652;SDS011;9900;48.738;9.306;2023-11-22T09:20:43;4.37;;;3.57;;
4652;SDS011;9900;48.738;9.306;2023-11-22T09:23:12;4.30;;;2.70;;
4652;SDS011;9900;48.738;9.306;2023-11-22T09:25:42;12.30;;;3.40;;
4652;SDS011;9900;48.738;9.306;2023-11-22T09:28:11;6.63;;;3.50;;
4652;SDS011;9900;48.738;9.306;2023-11-22T09:30:43;5.63;;;3.17;;
4652;SDS011;9900;48.738;9.306;2023-11-22T09:33:14;5.20;;;3.17;;
4652;SDS011;9900;48.738;9.306;2023-11-22T09:35:44;3.30;;;2.97;;
4652;SDS011;9900;48.738;9.306;2023-11-22T09:38:15;6.00;;;4.03;;
4652;SDS011;9900;48.738;9.306;2023-11-22T09:40:45;4.13;;;3.40;;
4652;SDS011;9900;48.738;9.306;2023-11-22T09:43:15;5.70;;;3.80;;
4652;SDS011;9900;48.738;9.306;2023-11-22T09:45:47;5.57;;;3.87;;
4652;SDS011;9900;48.738;9.306;2023-11-22T09:48:24;4.77;;;3.00;;
4652;SDS011;9900;48.738;9.306;2023-11-22T09:50:56;4.17;;;3.77;;
4652;SDS011;9900;48.738;9.306;2023-11-22T09:53:31;5.83;;;3.60;;
4652;SDS011;9900;48.738;9.306;2023-11-22T09:56:02;5.30;;;2.97;;
4652;SDS011;9900;48.738;9.306;2023-11-22T09:58:34;4.37;;;3.47;;
4652;SDS011;9900;48.738;9.306;2023-11-22T10:01:04;6.67;;;4.10;;
4652;SDS011;9900;48.738;9.306;2023-11-22T10:03:36;8.83;;;3.47;;
4652;SDS011;9900;48.738;9.306;2023-11-22T10:06:06;5.87;;;3.93;;
4652;SDS011;9900;48.738;9.306;2023-11-22T10:08:35;6.50;;;4.00;;
4652;SDS011;9900;48.738;9.306;2023-11-22T10:11:06;4.53;;;3.93;;
4652;SDS011;9900;48.738;9.306;2023-11-22T10:13:35;9.23;;;4.00;;
4652;SDS011;9900;48.738;9.306;2023-11-22T10:16:08;6.00;;;3.53;;
4652;SDS011;9900;48.738;9.306;2023-11-22T10:18:43;5.30;;;3.77;;
4652;SDS011;9900;48.738;9.306;2023-11-22T10:21:18;5.33;;;4.10;;
4652;SDS011;9900;48.738;9.306;2023-11-22T10:23:52;4.50;;;4.07;;
4652;SDS011;9900;48.738;9.306;2023-11-22T10:26:24;9.83;;;4.70;;
4652;SDS011;9900;48.738;9.306;2023-11-22T10:28:55;6.20;;;3.13;;
4652;SDS011;9900;48.738;9.306;2023-11-22T10:31:25;6.60;;;3.50;;
4652;SDS011;9900;48.738;9.306;2023-11-22T10:33:57;7.47;;;3.57;;
4652;SDS011;9900;48.738;9.306;2023-11-22T10:36:28;3.87;;;3.13;;
4652;SDS011;9900;48.738;9.306;2023-11-22T10:38:57;15.73;;;4.40;;
4652;SDS011;9900;48.738;9.306;2023-11-22T10:41:26;4.83;;;4.30;;
4652;SDS011;9900;48.738;9.306;2023-11-22T10:43:55;5.50;;;4.10;;
4652;SDS011;9900;48.738;9.306;2023-11-22T10:46:27;4.90;;;3.60;;
4652;SDS011;9900;48.738;9.306;2023-11-22T10:48:59;6.77;;;5.00;;
4652;SDS011;9900;48.738;9.306;2023-11-22T10:51:29;6.20;;;3.87;;
4652;SDS011;9900;48.738;9.306;2023-11-22T10:53:59;7.23;;;4.17;;
4652;SDS011;9900;48.738;9.306;2023-11-22T10:56:32;6.07;;;4.30;;
4652;SDS011;9900;48.738;9.306;2023-11-22T10:59:09;6.40;;;4.10;;
4652;SDS011;9900;48.738;9.306;2023-11-22T11:01:42;5.47;;;4.40;;
4652;SDS011;9900;48.738;9.306;2023-11-22T11:04:18;7.90;;;4.50;;
4652;SDS011;9900;48.738;9.306;2023-11-22T11:06:52;4.43;;;3.70;;
4652;SDS011;9900;48.738;9.306;2023-11-22T11:09:24;4.53;;;3.93;;
4652;SDS011;9900;48.738;9.306;2023-11-22T11:11:59;5.70;;;4.77;;
4652;SDS011;9900;48.738;9.306;2023-11-22T11:14:35;4.93;;;3.70;;
4652;SDS011;9900;48.738;9.306;2023-11-22T11:17:04;7.33;;;4.70;;
4652;SDS011;9900;48.738;9.306;2023-11-22T11:19:35;5.20;;;4.03;;
4652;SDS011;9900;48.738;9.306;2023-11-22T11:22:07;5.90;;;4.80;;
4652;SDS011;9900;48.738;9.306;2023-11-22T11:24:38;4.10;;;3.70;;
4652;SDS011;9900;48.738;9.306;2023-11-22T11:27:07;4.07;;;3.37;;
4652;SDS011;9900;48.738;9.306;2023-11-22T11:29:38;8.10;;;3.90;;
4652;SDS011;9900;48.738;9.306;2023-11-22T11:32:10;4.40;;;3.80;;
4652;SDS011;9900;48.738;9.306;2023-11-22T11:34:48;4.27;;;3.87;;
4652;SDS011;9900;48.738;9.306;2023-11-22T11:37:18;5.70;;;4.40;;
4652;SDS011;9900;48.738;9.306;2023-11-22T11:39:47;5.80;;;3.60;;
4652;SDS011;9900;48.738;9.306;2023-11-22T11:42:16;3.63;;;3.07;;
4652;SDS011;9900;48.738;9.306;2023-11-22T11:45:02;4.80;;;3.60;;
4652;SDS011;9900;48.738;9.306;2023-11-22T11:47:34;4.73;;;3.50;;
4652;SDS011;9900;48.738;9.306;2023-11-22T11:50:04;4.73;;;4.10;;
4652;SDS011;9900;48.738;9.306;2023-11-22T11:52:34;4.50;;;4.10;;
4652;SDS011;9900;48.738;9.306;2023-11-22T11:55:04;6.17;;;4.20;;
4652;SDS011;9900;48.738;9.306;2023-11-22T11:57:33;5.23;;;4.10;;
4652;SDS011;9900;48.738;9.306;2023-11-22T12:00:04;5.80;;;4.20;;
4652;SDS011;9900;48.738;9.306;2023-11-22T12:02:34;5.80;;;4.40;;
4652;SDS011;9900;48.738;9.306;2023-11-22T12:05:05;4.87;;;4.33;;
4652;SDS011;9900;48.738;9.306;2023-11-22T12:07:36;6.33;;;4.30;;
4652;SDS011;9900;48.738;9.306;2023-11-22T12:10:06;5.37;;;4.10;;
4652;SDS011;9900;48.738;9.306;2023-11-22T12:12:35;11.17;;;4.33;;
4652;SDS011;9900;48.738;9.306;2023-11-22T12:15:07;5.00;;;4.07;;
4652;SDS011;9900;48.738;9.306;2023-11-22T12:17:38;7.37;;;4.10;;
4652;SDS011;9900;48.738;9.306;2023-11-22T12:20:11;5.80;;;4.20;;
4652;SDS011;9900;48.738;9.306;2023-11-22T12:22:44;6.03;;;4.60;;
4652;SDS011;9900;48.738;9.306;2023-11-22T12:25:13;7.07;;;5.20;;
4652;SDS011;9900;48.738;9.306;2023-11-22T12:27:42;5.60;;;4.30;;
4652;SDS011;9900;48.738;9.306;2023-11-22T12:30:27;5.90;;;4.70;;
4652;SDS011;9900;48.738;9.306;2023-11-22T12:32:57;4.47;;;4.03;;
4652;SDS011;9900;48.738;9.306;2023-11-22T12:35:32;7.00;;;4.90;;
4652;SDS011;9900;48.738;9.306;2023-11-22T12:38:02;7.13;;;4.50;;
4652;SDS011;9900;48.738;9.306;2023-11-22T12:40:34;9.57;;;4.50;;
4652;SDS011;9900;48.738;9.306;2023-11-22T12:43:03;4.60;;;4.17;;
4652;SDS011;9900;48.738;9.306;2023-11-22T12:45:33;6.57;;;4.90;;
4652;SDS011;9900;48.738;9.306;2023-11-22T12:51:01;6.30;;;4.30;;
4652;SDS011;9900;48.738;9.306;2023-11-22T12:53:31;4.77;;;3.97;;
4652;SDS011;9900;48.738;9.306;2023-11-22T12:56:01;4.80;;;4.20;;
4652;SDS011;9900;48.738;9.306;2023-11-22T12:58:29;6.50;;;4.30;;
4652;SDS011;9900;48.738;9.306;2023-11-22T13:00:58;4.03;;;3.63;;
4652;SDS011;9900;48.738;9.306;2023-11-22T13:03:28;5.63;;;4.30;;
4652;SDS011;9900;48.738;9.306;2023-11-22T13:05:57;6.70;;;4.80;;
4652;SDS011;9900;48.738;9.306;2023-11-22T13:08:28;4.73;;;3.87;;
4652;SDS011;9900;48.738;9.306;2023-11-22T13:10:57;6.23;;;4.17;;
4652;SDS011;9900;48.738;9.306;2023-11-22T13:13:27;5.70;;;4.30;;
4652;SDS011;9900;48.738;9.306;2023-11-22T13:15:58;5.27;;;4.00;;
4652;SDS011;9900;48.738;9.306;2023-11-22T13:18:27;5.97;;;4.17;;
4652;SDS011;9900;48.738;9.306;2023-11-22T13:20:56;3.70;;;3.40;;
4652;SDS011;9900;48.738;9.306;2023-11-22T13:23:25;5.50;;;4.53;;
4652;SDS011;9900;48.738;9.306;2023-11-22T13:25:55;8.87;;;4.90;;
4652;SDS011;9900;48.738;9.306;2023-11-22T13:28:24;6.17;;;4.20;;
4652;SDS011;9900;48.738;9.306;2023-11-22T13:30:53;5.50;;;4.90;;
4652;SDS011;9900;48.738;9.306;2023-11-22T13:33:22;5.40;;;3.50;;
4652;SDS011;9900;48.738;9.306;2023-11-22T13:35:51;5.07;;;3.40;;
4652;SDS011;9900;48.738;9.306;2023-11-22T13:38:20;4.40;;;3.83;;
4652;SDS011;9900;48.738;9.306;2023-11-22T13:40:49;4.97;;;4.07;;
4652;SDS011;9900;48.738;9.306;2023-11-22T13:43:20;5.40;;;4.07;;
4652;SDS011;9900;48.738;9.306;2023-11-22T13:45:48;7.27;;;4.20;;
4652;SDS011;9900;48.738;9.306;2023-11-22T13:48:17;5.63;;;3.47;;
4652;SDS011;9900;48.738;9.306;2023-11-22T13:50:46;4.90;;;3.93;;
4652;SDS011;9900;48.738;9.306;2023-11-22T13:53:15;4.30;;;3.43;;
4652;SDS011;9900;48.738;9.306;2023-11-22T13:55:48;4.30;;;3.80;;
4652;SDS011;9900;48.738;9.306;2023-11-22T13:58:20;4.93;;;4.07;;
4652;SDS011;9900;48.738;9.306;2023-11-22T14:00:49;5.50;;;3.23;;
4652;SDS011;9900;48.738;9.306;2023-11-22T14:03:21;5.50;;;4.00;;
4652;SDS011;9900;48.738;9.306;2023-11-22T14:05:50;3.90;;;3.47;;
4652;SDS011;9900;48.738;9.306;2023-11-22T14:08:20;5.40;;;4.07;;
4652;SDS011;9900;48.738;9.306;2023-11-22T14:10:48;4.90;;;3.93;;
4652;SDS011;9900;48.738;9.306;2023-11-22T14:13:17;4.90;;;4.00;;
4652;SDS011;9900;48.738;9.306;2023-11-22T14:15:49;4.77;;;3.70;;
4652;SDS011;9900;48.738;9.306;2023-11-22T14:18:18;3.90;;;3.50;;
4652;SDS011;9900;48.738;9.306;2023-11-22T14:20:47;3.70;;;3.40;;
4652;SDS011;9900;48.738;9.306;2023-11-22T14:23:16;6.03;;;4.57;;
4652;SDS011;9900;48.738;9.306;2023-11-22T14:25:45;4.20;;;3.80;;
4652;SDS011;9900;48.738;9.306;2023-11-22T14:28:14;4.73;;;4.20;;
4652;SDS011;9900;48.738;9.306;2023-11-22T14:30:43;5.17;;;3.77;;
4652;SDS011;9900;48.738;9.306;2023-11-22T14:33:14;6.43;;;4.00;;
4652;SDS011;9900;48.738;9.306;2023-11-22T14:35:44;7.43;;;4.13;;
4652;SDS011;9900;48.738;9.306;2023-11-22T14:38:12;6.37;;;4.17;;
4652;SDS011;9900;48.738;9.306;2023-11-22T14:40:41;5.47;;;4.40;;
4652;SDS011;9900;48.738;9.306;2023-11-22T14:43:10;4.20;;;3.50;;
4652;SDS011;9900;48.738;9.306;2023-11-22T14:45:39;6.80;;;3.80;;
4652;SDS011;9900;48.738;9.306;2023-11-22T14:48:09;4.53;;;4.03;;
4652;SDS011;9900;48.738;9.306;2023-11-22T14:50:41;4.77;;;3.90;;
4652;SDS011;9900;48.738;9.306;2023-11-22T14:53:10;4.00;;;3.60;;
4652;SDS011;9900;48.738;9.306;2023-11-22T14:55:39;4.33;;;3.33;;
4652;SDS011;9900;48.738;9.306;2023-11-22T14:58:09;5.10;;;4.00;;
4652;SDS011;9900;48.738;9.306;2023-11-22T15:00:38;3.90;;;3.50;;
4652;SDS011;9900;48.738;9.306;2023-11-22T15:03:07;5.00;;;3.83;;
4652;SDS011;9900;48.738;9.306;2023-11-22T15:05:36;6.60;;;3.60;;
4652;SDS011;9900;48.738;9.306;2023-11-22T15:08:06;4.90;;;3.50;;
4652;SDS011;9900;48.738;9.306;2023-11-22T15:10:35;4.33;;;3.93;;
4652;SDS011;9900;48.738;9.306;2023-11-22T15:13:04;3.80;;;3.40;;
4652;SDS011;9900;48.738;9.306;2023-11-22T15:15:34;4.13;;;3.23;;
4652;SDS011;9900;48.738;9.306;2023-11-22T15:18:03;6.20;;;4.30;;
4652;SDS011;9900;48.738;9.306;2023-11-22T15:20:32;4.50;;;3.90;;
4652;SDS011;9900;48.738;9.306;2023-11-22T15:23:02;5.60;;;4.40;;
4652;SDS011;9900;48.738;9.306;2023-11-22T15:25:34;4.33;;;3.43;;
4652;SDS011;9900;48.738;9.306;2023-11-22T15:28:03;5.00;;;3.90;;
4652;SDS011;9900;48.738;9.306;2023-11-22T15:30:32;4.77;;;3.80;;
4652;SDS011;9900;48.738;9.306;2023-11-22T15:33:00;3.67;;;3.27;;
4652;SDS011;9900;48.738;9.306;2023-11-22T15:35:30;4.60;;;3.80;;